• Join FlightAware (Why Join?)
  • Login
  • US Flag 
05:24PM EDT


 

Airport Tracker/Info


-or-


 

Live Flight TrackerFlight Track Log ✈ N839CA ✈ 13-May-2013 ✈ KBUF - KEWR

Flight Track Log - Related Links

Times and Time Zones

All times are in EDT time to prevent confusion due to time zone crossing. See the N839CA flight status page for this flight to view local times or setup timezone preferences in your user account.

Time Position Orientation Groundspeed Altitude Reporting Facility
EDT Latitude Longitude Course Direction KTS MPH feet Rate Location/Type
07:33PM 42.9333 -78.7333 160° South 128 147 1,500  Level Buffalo TRACON
07:34PM 42.9000 -78.7167 160° South 185 213 2,800 1,320 Climbing Buffalo TRACON
07:36PM 42.8953 -78.5853 93° East 225 259 5,300 1,260 Climbing Cleveland Center
07:37PM 42.8897 -78.5061 95° East 216 249 6,400 1,380 Climbing Cleveland Center
07:38PM 42.8817 -78.4128 97° East 216 249 8,100 1,500 Climbing Cleveland Center
07:39PM 42.8758 -78.3281 95° East 216 249 9,500 1,200 Climbing Cleveland Center
07:40PM 42.8703 -78.2544 96° East 216 249 10,600 1,140 Climbing Cleveland Center
07:41PM 42.8644 -78.1669 95° East 216 249 11,800 1,140 Climbing Cleveland Center
07:42PM 42.8439 -78.0856 109° East 216 249 12,900 1,200 Climbing Cleveland Center
07:43PM 42.8211 -77.9958 109° East 227 261 14,200 1,080 Climbing Cleveland Center
07:44PM 42.7983 -77.9119 110° East 227 261 15,100 420 Climbing Cleveland Center
07:45PM 42.7731 -77.8197 110° East 243 280 15,100 -60 Level Cleveland Center
07:46PM 42.7436 -77.7164 111° Southeast 266 306 15,000 -60 Descending Cleveland Center
07:47PM 42.7136 -77.6047 110° East 278 320 15,000  Level Cleveland Center
07:49PM 42.6622 -77.4100 110° East 299 344 15,000  Level New York Center
07:50PM 42.6328 -77.3025 110° East 299 344 15,000  Level New York Center
07:51PM 42.6053 -77.1983 110° East 299 344 15,000  Level New York Center
07:52PM 42.5756 -77.0914 111° Southeast 299 344 15,000 -60 Level New York Center
07:53PM 42.5456 -76.9869 111° Southeast 299 344 14,900  Descending New York Center
07:54PM 42.5158 -76.8800 111° Southeast 299 344 15,000  Climbing New York Center
07:55PM 42.4875 -76.7792 111° Southeast 294 338 15,000  Level New York Center
07:56PM 42.4533 -76.6617 111° Southeast 292 336 15,000  Level Boston Center
07:57PM 42.4236 -76.5583 111° Southeast 302 348 15,000  Level Boston Center
07:58PM 42.3942 -76.4522 111° Southeast 297 342 15,000  Level Boston Center
07:59PM 42.3642 -76.3519 112° Southeast 297 342 15,100  Climbing Boston Center
08:00PM 42.3344 -76.2461 111° Southeast 297 342 15,000 -60 Descending Boston Center
08:01PM 42.3086 -76.1492 110° East 297 342 15,000 -60 Level Boston Center
08:02PM 42.2769 -76.0322 110° East 297 342 14,900  Descending Boston Center
08:03PM 42.2447 -75.9264 112° Southeast 297 342 15,000  Climbing Boston Center
08:04PM 42.2164 -75.8239 110° East 297 342 15,000  Level Boston Center
08:05PM 42.1842 -75.7186 112° Southeast 297 342 15,000  Level Boston Center
08:06PM 42.1536 -75.6161 112° Southeast 297 342 15,000 -60 Level Boston Center
08:07PM 42.1211 -75.5108 113° Southeast 297 342 14,900  Descending Boston Center
08:08PM 42.0908 -75.4031 111° Southeast 297 342 15,000  Climbing Boston Center
08:09PM 42.0600 -75.3008 112° Southeast 297 342 15,000  Level Boston Center
08:10PM 42.0228 -75.2042 117° Southeast 297 342 15,000  Level Boston Center
08:11PM 41.9756 -75.0819 117° Southeast 302 348 15,000  Level Boston Center
08:12PM 41.9364 -74.9825 118° Southeast 307 353 15,000 -300 Level Boston Center
08:13PM 41.8989 -74.8864 118° Southeast 307 353 14,400 -840 Descending Boston Center
08:14PM 41.8250 -74.8306 151° Southeast 296 341 13,400 -1,200 Descending Boston Center
08:15PM 41.7486 -74.7858 156° South 296 341 12,000 -1,800 Descending Boston Center
08:16PM 41.6747 -74.7414 156° South 296 341 9,800 -2,400 Descending Boston Center
08:17PM 41.6025 -74.7028 158° South 285 328 7,300 -1,500 Descending Boston Center
08:18PM 41.5325 -74.6614 156° South 285 328 6,800 -600 Descending Boston Center
08:19PM 41.4583 -74.6172 156° South 290 334 6,200 -360 Descending Boston Center
08:21PM 41.3333 -74.6000 174° South 271 312 5,900 -180 Descending New York TRACON
08:22PM 41.2667 -74.5833 169° South 274 315 5,900  Level New York TRACON
08:23PM 41.1833 -74.5833 180° South 277 319 6,000  Climbing New York TRACON
08:24PM 41.1000 -74.5667 171° South 282 325 6,000  Level New York TRACON
08:25PM 41.0500 -74.5167 143° Southeast 284 327 6,000  Level New York TRACON
08:26PM 40.9833 -74.4833 159° South 288 331 6,000 -60 Level New York TRACON
08:27PM 40.9167 -74.5333 210° Southwest 270 311 5,900 -480 Descending New York TRACON
08:28PM 40.8500 -74.5667 201° Southwest 265 305 5,100 -480 Descending New York TRACON
08:29PM 40.7833 -74.5833 191° South 273 314 5,000 -60 Descending New York TRACON
08:30PM 40.7000 -74.5667 171° South 272 313 5,000  Level New York TRACON
08:31PM 40.6333 -74.5500 169° South 272 313 5,000  Level New York TRACON
08:32PM 40.5500 -74.5500 180° South 270 311 5,000  Level New York TRACON
08:33PM 40.4667 -74.5667 189° South 273 314 5,000  Level New York TRACON
08:34PM 40.4000 -74.5833 191° South 247 284 5,000 -540 Level New York TRACON
08:35PM 40.3500 -74.5167 135° Southeast 247 284 4,000 -720 Descending New York TRACON
08:36PM 40.3167 -74.4500 123° Southeast 228 262 3,500 -540 Descending New York TRACON
08:37PM 40.3000 -74.3833 108° East 223 257 3,000 -300 Descending New York TRACON
08:38PM 40.3500 -74.3667 14° North 184 212 3,000  Level New York TRACON
08:39PM 40.4000 -74.3500 14° North 176 203 3,000  Level New York TRACON
08:40PM 40.4333 -74.3167 37° Northeast 174 200 3,000 -60 Level New York TRACON
08:41PM 40.4833 -74.3000 14° North 177 204 2,900 -120 Descending New York TRACON